Abrams, Wisconsin
Current Conditions -  °F | °C
As of 3:15 PM on Sunday 23 Nov 2014 (Local Time) from KOCQ Reporting Station
Overcast Overcast  
Wind Chill: 41°   Ceiling: 300
Heat Index: 44°   Visibility: 1.5mi
Dew Point: 44°   Wind: 5mph
Humidity: 100%   Direction: 160°SSE
Pressure: 29.47"   Gusts: NA
Location:  44.78°N, 88.06°W
Report Text: KOCQ 232115Z AUTO 16004KT 1 1/2SM OVC003 06/06 A2947 RMK AO1 P0001 T00640064
Loading
Personal Weather Stations






























Interactive Weather Map New forecast layout! Learn more

10-Day Weather Forecast

Advertisements
Track Severe Weather on mobile